sensor_id;sensor_type;location;lat;lon;timestamp;P1;durP1;ratioP1;P2;durP2;ratioP2
2674;SDS011;1347;42.122;24.746;2023-07-02T00:02:15;12.10;;;11.00;;
2674;SDS011;1347;42.122;24.746;2023-07-02T00:04:45;12.00;;;10.80;;
2674;SDS011;1347;42.122;24.746;2023-07-02T00:07:12;15.30;;;11.30;;
2674;SDS011;1347;42.122;24.746;2023-07-02T00:09:40;11.67;;;10.47;;
2674;SDS011;1347;42.122;24.746;2023-07-02T00:12:07;13.30;;;10.50;;
2674;SDS011;1347;42.122;24.746;2023-07-02T00:14:35;15.07;;;11.80;;
2674;SDS011;1347;42.122;24.746;2023-07-02T00:17:02;13.23;;;11.47;;
2674;SDS011;1347;42.122;24.746;2023-07-02T00:19:29;11.70;;;10.60;;
2674;SDS011;1347;42.122;24.746;2023-07-02T00:21:57;16.20;;;12.00;;
2674;SDS011;1347;42.122;24.746;2023-07-02T00:24:24;11.90;;;10.70;;
2674;SDS011;1347;42.122;24.746;2023-07-02T00:26:51;12.40;;;11.20;;
2674;SDS011;1347;42.122;24.746;2023-07-02T00:29:18;13.07;;;11.63;;
2674;SDS011;1347;42.122;24.746;2023-07-02T00:31:45;13.30;;;11.73;;
2674;SDS011;1347;42.122;24.746;2023-07-02T00:34:11;13.37;;;11.97;;
2674;SDS011;1347;42.122;24.746;2023-07-02T00:36:38;12.53;;;11.33;;
2674;SDS011;1347;42.122;24.746;2023-07-02T00:39:08;13.23;;;12.00;;
2674;SDS011;1347;42.122;24.746;2023-07-02T00:41:37;13.63;;;12.23;;
2674;SDS011;1347;42.122;24.746;2023-07-02T00:44:04;11.33;;;10.23;;
2674;SDS011;1347;42.122;24.746;2023-07-02T00:46:31;12.57;;;11.23;;
2674;SDS011;1347;42.122;24.746;2023-07-02T00:48:58;13.40;;;11.73;;
2674;SDS011;1347;42.122;24.746;2023-07-02T00:51:26;13.53;;;11.67;;
2674;SDS011;1347;42.122;24.746;2023-07-02T00:53:54;17.03;;;13.27;;
2674;SDS011;1347;42.122;24.746;2023-07-02T00:56:24;19.90;;;12.50;;
2674;SDS011;1347;42.122;24.746;2023-07-02T00:58:52;13.90;;;12.43;;
2674;SDS011;1347;42.122;24.746;2023-07-02T01:01:24;13.43;;;11.93;;
2674;SDS011;1347;42.122;24.746;2023-07-02T01:03:53;16.97;;;13.10;;
2674;SDS011;1347;42.122;24.746;2023-07-02T01:06:24;12.43;;;11.17;;
2674;SDS011;1347;42.122;24.746;2023-07-02T01:08:53;13.63;;;10.93;;
2674;SDS011;1347;42.122;24.746;2023-07-02T01:11:22;15.30;;;11.13;;
2674;SDS011;1347;42.122;24.746;2023-07-02T01:13:53;12.70;;;10.87;;
2674;SDS011;1347;42.122;24.746;2023-07-02T01:16:25;15.03;;;11.43;;
2674;SDS011;1347;42.122;24.746;2023-07-02T01:18:56;13.43;;;10.23;;
2674;SDS011;1347;42.122;24.746;2023-07-02T01:21:25;16.13;;;11.00;;
2674;SDS011;1347;42.122;24.746;2023-07-02T01:23:52;11.20;;;9.40;;
2674;SDS011;1347;42.122;24.746;2023-07-02T01:26:19;10.33;;;9.40;;
2674;SDS011;1347;42.122;24.746;2023-07-02T01:28:46;14.77;;;10.27;;
2674;SDS011;1347;42.122;24.746;2023-07-02T01:31:13;10.90;;;9.17;;
2674;SDS011;1347;42.122;24.746;2023-07-02T01:33:40;10.33;;;9.20;;
2674;SDS011;1347;42.122;24.746;2023-07-02T01:36:07;12.00;;;8.83;;
2674;SDS011;1347;42.122;24.746;2023-07-02T01:38:35;10.40;;;8.43;;
2674;SDS011;1347;42.122;24.746;2023-07-02T01:41:02;16.73;;;9.70;;
2674;SDS011;1347;42.122;24.746;2023-07-02T01:43:29;12.97;;;9.60;;
2674;SDS011;1347;42.122;24.746;2023-07-02T01:45:56;9.53;;;8.63;;
2674;SDS011;1347;42.122;24.746;2023-07-02T01:48:24;10.77;;;8.77;;
2674;SDS011;1347;42.122;24.746;2023-07-02T01:50:51;10.13;;;8.97;;
2674;SDS011;1347;42.122;24.746;2023-07-02T01:53:18;12.03;;;9.43;;
2674;SDS011;1347;42.122;24.746;2023-07-02T01:55:46;10.00;;;8.20;;
2674;SDS011;1347;42.122;24.746;2023-07-02T01:58:14;11.87;;;9.40;;
2674;SDS011;1347;42.122;24.746;2023-07-02T02:00:41;11.30;;;9.37;;
2674;SDS011;1347;42.122;24.746;2023-07-02T02:03:08;11.60;;;8.50;;
2674;SDS011;1347;42.122;24.746;2023-07-02T02:05:34;10.23;;;8.70;;
2674;SDS011;1347;42.122;24.746;2023-07-02T02:08:01;8.90;;;7.70;;
2674;SDS011;1347;42.122;24.746;2023-07-02T02:10:28;9.50;;;8.70;;
2674;SDS011;1347;42.122;24.746;2023-07-02T02:12:57;10.70;;;8.00;;
2674;SDS011;1347;42.122;24.746;2023-07-02T02:15:23;9.70;;;8.73;;
2674;SDS011;1347;42.122;24.746;2023-07-02T02:17:50;13.03;;;8.87;;
2674;SDS011;1347;42.122;24.746;2023-07-02T02:20:17;10.90;;;8.20;;
2674;SDS011;1347;42.122;24.746;2023-07-02T02:22:44;9.93;;;8.67;;
2674;SDS011;1347;42.122;24.746;2023-07-02T02:25:11;17.20;;;10.27;;
2674;SDS011;1347;42.122;24.746;2023-07-02T02:27:38;9.87;;;8.40;;
2674;SDS011;1347;42.122;24.746;2023-07-02T02:30:07;11.93;;;10.17;;
2674;SDS011;1347;42.122;24.746;2023-07-02T02:32:34;11.77;;;9.17;;
2674;SDS011;1347;42.122;24.746;2023-07-02T02:35:02;10.90;;;8.67;;
2674;SDS011;1347;42.122;24.746;2023-07-02T02:37:29;14.47;;;8.37;;
2674;SDS011;1347;42.122;24.746;2023-07-02T02:39:57;10.10;;;8.77;;
2674;SDS011;1347;42.122;24.746;2023-07-02T02:42:24;9.53;;;8.53;;
2674;SDS011;1347;42.122;24.746;2023-07-02T02:44:51;14.33;;;8.47;;
2674;SDS011;1347;42.122;24.746;2023-07-02T02:47:20;11.70;;;9.70;;
2674;SDS011;1347;42.122;24.746;2023-07-02T02:49:47;10.77;;;8.93;;
2674;SDS011;1347;42.122;24.746;2023-07-02T02:52:13;12.70;;;9.83;;
2674;SDS011;1347;42.122;24.746;2023-07-02T02:54:40;10.33;;;9.30;;
2674;SDS011;1347;42.122;24.746;2023-07-02T02:57:07;14.03;;;10.13;;
2674;SDS011;1347;42.122;24.746;2023-07-02T02:59:34;10.80;;;9.70;;
2674;SDS011;1347;42.122;24.746;2023-07-02T03:02:01;14.00;;;9.43;;
2674;SDS011;1347;42.122;24.746;2023-07-02T03:04:29;10.17;;;9.17;;
2674;SDS011;1347;42.122;24.746;2023-07-02T03:06:56;9.70;;;8.63;;
2674;SDS011;1347;42.122;24.746;2023-07-02T03:09:23;10.87;;;8.83;;
2674;SDS011;1347;42.122;24.746;2023-07-02T03:11:50;10.90;;;9.50;;
2674;SDS011;1347;42.122;24.746;2023-07-02T03:14:17;11.47;;;8.30;;
2674;SDS011;1347;42.122;24.746;2023-07-02T03:16:44;10.17;;;8.47;;
2674;SDS011;1347;42.122;24.746;2023-07-02T03:19:11;10.37;;;8.77;;
2674;SDS011;1347;42.122;24.746;2023-07-02T03:21:41;10.90;;;9.30;;
2674;SDS011;1347;42.122;24.746;2023-07-02T03:24:08;12.20;;;10.10;;
2674;SDS011;1347;42.122;24.746;2023-07-02T03:26:37;12.23;;;9.77;;
2674;SDS011;1347;42.122;24.746;2023-07-02T03:29:04;14.10;;;9.90;;
2674;SDS011;1347;42.122;24.746;2023-07-02T03:31:30;11.23;;;9.97;;
2674;SDS011;1347;42.122;24.746;2023-07-02T03:33:57;11.63;;;9.57;;
2674;SDS011;1347;42.122;24.746;2023-07-02T03:36:24;11.70;;;9.73;;
2674;SDS011;1347;42.122;24.746;2023-07-02T03:38:52;12.53;;;9.80;;
2674;SDS011;1347;42.122;24.746;2023-07-02T03:41:19;12.10;;;10.17;;
2674;SDS011;1347;42.122;24.746;2023-07-02T03:43:46;13.23;;;9.60;;
2674;SDS011;1347;42.122;24.746;2023-07-02T03:46:13;17.57;;;10.90;;
2674;SDS011;1347;42.122;24.746;2023-07-02T03:48:40;14.87;;;10.40;;
2674;SDS011;1347;42.122;24.746;2023-07-02T03:51:07;10.43;;;9.20;;
2674;SDS011;1347;42.122;24.746;2023-07-02T03:53:34;13.13;;;11.03;;
2674;SDS011;1347;42.122;24.746;2023-07-02T03:56:02;12.60;;;9.33;;
2674;SDS011;1347;42.122;24.746;2023-07-02T03:58:29;13.07;;;11.70;;
2674;SDS011;1347;42.122;24.746;2023-07-02T04:00:56;12.83;;;10.13;;
2674;SDS011;1347;42.122;24.746;2023-07-02T04:03:23;17.43;;;9.77;;
2674;SDS011;1347;42.122;24.746;2023-07-02T04:05:50;13.83;;;10.80;;
2674;SDS011;1347;42.122;24.746;2023-07-02T04:08:17;14.70;;;10.37;;
2674;SDS011;1347;42.122;24.746;2023-07-02T04:10:46;16.53;;;10.87;;
2674;SDS011;1347;42.122;24.746;2023-07-02T04:13:14;14.63;;;11.33;;
2674;SDS011;1347;42.122;24.746;2023-07-02T04:15:41;15.90;;;11.90;;
2674;SDS011;1347;42.122;24.746;2023-07-02T04:18:08;13.53;;;12.07;;
2674;SDS011;1347;42.122;24.746;2023-07-02T04:20:35;13.93;;;12.23;;
2674;SDS011;1347;42.122;24.746;2023-07-02T04:23:03;13.33;;;10.57;;
2674;SDS011;1347;42.122;24.746;2023-07-02T04:25:30;13.90;;;11.50;;
2674;SDS011;1347;42.122;24.746;2023-07-02T04:27:57;15.30;;;11.93;;
2674;SDS011;1347;42.122;24.746;2023-07-02T04:30:25;16.77;;;11.23;;
2674;SDS011;1347;42.122;24.746;2023-07-02T04:32:52;14.10;;;12.43;;
2674;SDS011;1347;42.122;24.746;2023-07-02T04:35:19;22.80;;;12.43;;
2674;SDS011;1347;42.122;24.746;2023-07-02T04:37:46;13.60;;;10.93;;
2674;SDS011;1347;42.122;24.746;2023-07-02T04:40:13;16.03;;;11.97;;
2674;SDS011;1347;42.122;24.746;2023-07-02T04:42:40;17.13;;;11.33;;
2674;SDS011;1347;42.122;24.746;2023-07-02T04:45:11;17.30;;;11.40;;
2674;SDS011;1347;42.122;24.746;2023-07-02T04:47:41;15.43;;;11.10;;
2674;SDS011;1347;42.122;24.746;2023-07-02T04:50:09;20.47;;;11.23;;
2674;SDS011;1347;42.122;24.746;2023-07-02T04:52:36;15.20;;;12.27;;
2674;SDS011;1347;42.122;24.746;2023-07-02T04:55:03;13.03;;;11.13;;
2674;SDS011;1347;42.122;24.746;2023-07-02T04:57:31;15.20;;;13.33;;
2674;SDS011;1347;42.122;24.746;2023-07-02T04:59:58;12.63;;;11.30;;
2674;SDS011;1347;42.122;24.746;2023-07-02T05:02:25;11.83;;;10.37;;
2674;SDS011;1347;42.122;24.746;2023-07-02T05:04:53;14.07;;;12.07;;
2674;SDS011;1347;42.122;24.746;2023-07-02T05:07:20;17.03;;;12.33;;
2674;SDS011;1347;42.122;24.746;2023-07-02T05:09:47;25.07;;;13.83;;
2674;SDS011;1347;42.122;24.746;2023-07-02T05:12:17;16.20;;;11.10;;
2674;SDS011;1347;42.122;24.746;2023-07-02T05:14:43;15.50;;;11.50;;
2674;SDS011;1347;42.122;24.746;2023-07-02T05:17:10;16.80;;;14.67;;
2674;SDS011;1347;42.122;24.746;2023-07-02T05:19:39;14.67;;;11.27;;
2674;SDS011;1347;42.122;24.746;2023-07-02T05:22:08;15.17;;;11.00;;
2674;SDS011;1347;42.122;24.746;2023-07-02T05:24:36;13.67;;;12.13;;
2674;SDS011;1347;42.122;24.746;2023-07-02T05:27:03;18.17;;;12.63;;
2674;SDS011;1347;42.122;24.746;2023-07-02T05:29:30;14.60;;;12.53;;
2674;SDS011;1347;42.122;24.746;2023-07-02T05:31:57;15.03;;;11.70;;
2674;SDS011;1347;42.122;24.746;2023-07-02T05:34:24;16.57;;;13.10;;
2674;SDS011;1347;42.122;24.746;2023-07-02T05:36:51;15.10;;;12.53;;
2674;SDS011;1347;42.122;24.746;2023-07-02T05:39:19;22.37;;;12.67;;
2674;SDS011;1347;42.122;24.746;2023-07-02T05:41:48;14.70;;;12.43;;
2674;SDS011;1347;42.122;24.746;2023-07-02T05:44:16;17.90;;;12.63;;
2674;SDS011;1347;42.122;24.746;2023-07-02T05:46:44;15.53;;;13.77;;
2674;SDS011;1347;42.122;24.746;2023-07-02T05:49:11;17.30;;;11.50;;
2674;SDS011;1347;42.122;24.746;2023-07-02T05:51:38;15.07;;;12.23;;
2674;SDS011;1347;42.122;24.746;2023-07-02T05:54:05;16.07;;;13.13;;
2674;SDS011;1347;42.122;24.746;2023-07-02T05:56:34;15.60;;;12.37;;
2674;SDS011;1347;42.122;24.746;2023-07-02T05:59:01;20.83;;;12.20;;
2674;SDS011;1347;42.122;24.746;2023-07-02T06:01:27;13.63;;;12.00;;
2674;SDS011;1347;42.122;24.746;2023-07-02T06:03:54;16.13;;;12.10;;
2674;SDS011;1347;42.122;24.746;2023-07-02T06:06:21;13.97;;;11.67;;
2674;SDS011;1347;42.122;24.746;2023-07-02T06:08:49;16.00;;;12.70;;
2674;SDS011;1347;42.122;24.746;2023-07-02T06:11:16;14.80;;;13.17;;
2674;SDS011;1347;42.122;24.746;2023-07-02T06:13:45;14.13;;;11.93;;
2674;SDS011;1347;42.122;24.746;2023-07-02T06:16:11;14.27;;;12.57;;
2674;SDS011;1347;42.122;24.746;2023-07-02T06:18:38;18.10;;;12.13;;
2674;SDS011;1347;42.122;24.746;2023-07-02T06:21:06;14.60;;;12.03;;
2674;SDS011;1347;42.122;24.746;2023-07-02T06:23:39;12.70;;;11.40;;
2674;SDS011;1347;42.122;24.746;2023-07-02T06:26:07;12.80;;;11.60;;
2674;SDS011;1347;42.122;24.746;2023-07-02T06:28:34;16.37;;;13.33;;
2674;SDS011;1347;42.122;24.746;2023-07-02T06:31:02;17.50;;;13.37;;
2674;SDS011;1347;42.122;24.746;2023-07-02T06:33:29;13.37;;;12.03;;
2674;SDS011;1347;42.122;24.746;2023-07-02T06:35:56;13.93;;;12.57;;
2674;SDS011;1347;42.122;24.746;2023-07-02T06:38:23;16.13;;;12.10;;
2674;SDS011;1347;42.122;24.746;2023-07-02T06:40:50;19.20;;;11.90;;
2674;SDS011;1347;42.122;24.746;2023-07-02T06:43:17;29.23;;;13.37;;
2674;SDS011;1347;42.122;24.746;2023-07-02T06:45:44;17.83;;;12.47;;
2674;SDS011;1347;42.122;24.746;2023-07-02T06:48:12;15.73;;;11.63;;
2674;SDS011;1347;42.122;24.746;2023-07-02T06:50:43;13.20;;;11.90;;
2674;SDS011;1347;42.122;24.746;2023-07-02T06:53:11;13.80;;;12.37;;
2674;SDS011;1347;42.122;24.746;2023-07-02T06:55:37;12.47;;;11.17;;
2674;SDS011;1347;42.122;24.746;2023-07-02T06:58:04;13.57;;;11.60;;
2674;SDS011;1347;42.122;24.746;2023-07-02T07:00:32;14.23;;;10.10;;
2674;SDS011;1347;42.122;24.746;2023-07-02T07:03:00;15.77;;;10.17;;
2674;SDS011;1347;42.122;24.746;2023-07-02T07:05:29;12.10;;;10.20;;
2674;SDS011;1347;42.122;24.746;2023-07-02T07:07:57;11.33;;;10.23;;
2674;SDS011;1347;42.122;24.746;2023-07-02T07:10:24;12.80;;;10.13;;
2674;SDS011;1347;42.122;24.746;2023-07-02T07:12:51;13.37;;;10.90;;
2674;SDS011;1347;42.122;24.746;2023-07-02T07:15:18;14.90;;;13.30;;
2674;SDS011;1347;42.122;24.746;2023-07-02T07:17:45;11.33;;;10.23;;
2674;SDS011;1347;42.122;24.746;2023-07-02T07:20:12;11.80;;;9.77;;
2674;SDS011;1347;42.122;24.746;2023-07-02T07:22:41;12.67;;;9.67;;
2674;SDS011;1347;42.122;24.746;2023-07-02T07:25:08;11.33;;;10.03;;
2674;SDS011;1347;42.122;24.746;2023-07-02T07:27:37;10.80;;;9.80;;
2674;SDS011;1347;42.122;24.746;2023-07-02T07:30:04;12.80;;;9.83;;
2674;SDS011;1347;42.122;24.746;2023-07-02T07:32:32;11.83;;;10.63;;
2674;SDS011;1347;42.122;24.746;2023-07-02T07:34:58;11.33;;;9.90;;
2674;SDS011;1347;42.122;24.746;2023-07-02T07:37:30;10.93;;;9.80;;
2674;SDS011;1347;42.122;24.746;2023-07-02T07:39:59;12.17;;;10.07;;
2674;SDS011;1347;42.122;24.746;2023-07-02T07:42:25;12.30;;;11.00;;
2674;SDS011;1347;42.122;24.746;2023-07-02T07:44:52;12.93;;;9.30;;
2674;SDS011;1347;42.122;24.746;2023-07-02T07:47:19;10.40;;;9.47;;
2674;SDS011;1347;42.122;24.746;2023-07-02T07:49:46;13.03;;;9.20;;
2674;SDS011;1347;42.122;24.746;2023-07-02T07:52:13;11.40;;;9.20;;
2674;SDS011;1347;42.122;24.746;2023-07-02T07:54:41;14.33;;;9.77;;
2674;SDS011;1347;42.122;24.746;2023-07-02T07:57:10;11.77;;;9.83;;
2674;SDS011;1347;42.122;24.746;2023-07-02T07:59:38;15.43;;;10.07;;
2674;SDS011;1347;42.122;24.746;2023-07-02T08:02:05;11.23;;;10.03;;
2674;SDS011;1347;42.122;24.746;2023-07-02T08:04:32;11.60;;;10.50;;
2674;SDS011;1347;42.122;24.746;2023-07-02T08:07:01;10.97;;;9.87;;
2674;SDS011;1347;42.122;24.746;2023-07-02T08:09:29;10.20;;;9.20;;
2674;SDS011;1347;42.122;24.746;2023-07-02T08:11:56;11.10;;;9.60;;
2674;SDS011;1347;42.122;24.746;2023-07-02T08:14:24;9.73;;;8.73;;
2674;SDS011;1347;42.122;24.746;2023-07-02T08:16:51;11.37;;;10.20;;
2674;SDS011;1347;42.122;24.746;2023-07-02T08:19:18;11.10;;;10.10;;
2674;SDS011;1347;42.122;24.746;2023-07-02T08:21:46;13.50;;;9.97;;
2674;SDS011;1347;42.122;24.746;2023-07-02T08:24:13;10.87;;;9.77;;
2674;SDS011;1347;42.122;24.746;2023-07-02T08:26:40;12.20;;;9.20;;
2674;SDS011;1347;42.122;24.746;2023-07-02T08:29:08;9.60;;;8.57;;
2674;SDS011;1347;42.122;24.746;2023-07-02T08:31:37;9.83;;;8.93;;
2674;SDS011;1347;42.122;24.746;2023-07-02T08:34:03;16.03;;;9.27;;
2674;SDS011;1347;42.122;24.746;2023-07-02T08:36:30;13.20;;;9.50;;
2674;SDS011;1347;42.122;24.746;2023-07-02T08:38:57;10.80;;;9.77;;
2674;SDS011;1347;42.122;24.746;2023-07-02T08:41:24;9.40;;;8.60;;
2674;SDS011;1347;42.122;24.746;2023-07-02T08:43:55;9.90;;;8.90;;
2674;SDS011;1347;42.122;24.746;2023-07-02T08:46:22;9.70;;;8.80;;
2674;SDS011;1347;42.122;24.746;2023-07-02T08:48:51;10.07;;;9.17;;
2674;SDS011;1347;42.122;24.746;2023-07-02T08:51:18;9.73;;;8.87;;
2674;SDS011;1347;42.122;24.746;2023-07-02T08:53:45;10.47;;;9.43;;
2674;SDS011;1347;42.122;24.746;2023-07-02T08:56:12;10.33;;;9.33;;
2674;SDS011;1347;42.122;24.746;2023-07-02T08:58:39;10.87;;;9.73;;
2674;SDS011;1347;42.122;24.746;2023-07-02T09:01:06;14.70;;;9.33;;
2674;SDS011;1347;42.122;24.746;2023-07-02T09:03:34;11.23;;;10.13;;
2674;SDS011;1347;42.122;24.746;2023-07-02T09:06:04;10.17;;;9.27;;
2674;SDS011;1347;42.122;24.746;2023-07-02T09:08:31;10.20;;;9.20;;
2674;SDS011;1347;42.122;24.746;2023-07-02T09:11:06;10.80;;;9.70;;
2674;SDS011;1347;42.122;24.746;2023-07-02T09:13:43;11.87;;;10.67;;
2674;SDS011;1347;42.122;24.746;2023-07-02T09:18:57;10.47;;;9.40;;
2674;SDS011;1347;42.122;24.746;2023-07-02T09:21:27;11.00;;;10.00;;
2674;SDS011;1347;42.122;24.746;2023-07-02T09:23:54;10.00;;;8.97;;
2674;SDS011;1347;42.122;24.746;2023-07-02T09:26:22;11.47;;;10.30;;
2674;SDS011;1347;42.122;24.746;2023-07-02T09:28:49;10.10;;;9.23;;
2674;SDS011;1347;42.122;24.746;2023-07-02T09:31:16;10.00;;;8.93;;
2674;SDS011;1347;42.122;24.746;2023-07-02T09:33:43;9.87;;;8.80;;
2674;SDS011;1347;42.122;24.746;2023-07-02T09:36:11;11.80;;;10.30;;
2674;SDS011;1347;42.122;24.746;2023-07-02T09:38:40;10.07;;;9.07;;
2674;SDS011;1347;42.122;24.746;2023-07-02T09:41:07;10.70;;;9.60;;
2674;SDS011;1347;42.122;24.746;2023-07-02T09:43:34;10.03;;;9.23;;
2674;SDS011;1347;42.122;24.746;2023-07-02T09:46:01;9.93;;;8.93;;
2674;SDS011;1347;42.122;24.746;2023-07-02T09:48:29;10.30;;;8.90;;
2674;SDS011;1347;42.122;24.746;2023-07-02T09:51:01;9.87;;;8.83;;
2674;SDS011;1347;42.122;24.746;2023-07-02T09:53:30;10.33;;;9.13;;
2674;SDS011;1347;42.122;24.746;2023-07-02T09:55:58;11.87;;;10.70;;
2674;SDS011;1347;42.122;24.746;2023-07-02T09:58:25;10.43;;;9.57;;
2674;SDS011;1347;42.122;24.746;2023-07-02T10:00:52;10.67;;;9.63;;
2674;SDS011;1347;42.122;24.746;2023-07-02T10:03:27;9.70;;;8.90;;
2674;SDS011;1347;42.122;24.746;2023-07-02T10:06:02;11.03;;;9.93;;
2674;SDS011;1347;42.122;24.746;2023-07-02T10:08:30;9.20;;;8.30;;
2674;SDS011;1347;42.122;24.746;2023-07-02T10:11:07;9.03;;;8.17;;
2674;SDS011;1347;42.122;24.746;2023-07-02T10:13:38;9.80;;;8.90;;
2674;SDS011;1347;42.122;24.746;2023-07-02T10:16:05;9.53;;;8.53;;
2674;SDS011;1347;42.122;24.746;2023-07-02T10:18:33;9.33;;;8.53;;
2674;SDS011;1347;42.122;24.746;2023-07-02T10:21:00;9.40;;;8.60;;
2674;SDS011;1347;42.122;24.746;2023-07-02T10:23:33;9.87;;;8.83;;
2674;SDS011;1347;42.122;24.746;2023-07-02T10:26:13;9.77;;;8.97;;
2674;SDS011;1347;42.122;24.746;2023-07-02T10:28:41;9.63;;;8.57;;
2674;SDS011;1347;42.122;24.746;2023-07-02T10:31:18;8.47;;;7.60;;
2674;SDS011;1347;42.122;24.746;2023-07-02T10:33:46;10.03;;;9.10;;
2674;SDS011;1347;42.122;24.746;2023-07-02T10:36:17;9.57;;;8.67;;
2674;SDS011;1347;42.122;24.746;2023-07-02T10:38:45;8.93;;;8.03;;
2674;SDS011;1347;42.122;24.746;2023-07-02T10:41:22;8.60;;;7.80;;
2674;SDS011;1347;42.122;24.746;2023-07-02T10:43:50;10.37;;;8.00;;
2674;SDS011;1347;42.122;24.746;2023-07-02T10:46:20;8.90;;;7.77;;
2674;SDS011;1347;42.122;24.746;2023-07-02T10:48:51;10.47;;;8.63;;
2674;SDS011;1347;42.122;24.746;2023-07-02T10:51:18;39.27;;;15.13;;
2674;SDS011;1347;42.122;24.746;2023-07-02T10:53:46;15.87;;;8.60;;
2674;SDS011;1347;42.122;24.746;2023-07-02T10:56:26;16.50;;;11.87;;
2674;SDS011;1347;42.122;24.746;2023-07-02T10:58:53;20.00;;;14.50;;
2674;SDS011;1347;42.122;24.746;2023-07-02T11:01:24;23.87;;;15.10;;
2674;SDS011;1347;42.122;24.746;2023-07-02T11:03:55;27.30;;;16.40;;
2674;SDS011;1347;42.122;24.746;2023-07-02T11:06:23;22.13;;;14.40;;
2674;SDS011;1347;42.122;24.746;2023-07-02T11:08:51;23.23;;;15.00;;
2674;SDS011;1347;42.122;24.746;2023-07-02T11:11:20;19.93;;;14.80;;
2674;SDS011;1347;42.122;24.746;2023-07-02T11:13:49;20.40;;;14.10;;
2674;SDS011;1347;42.122;24.746;2023-07-02T11:16:17;23.83;;;15.20;;
2674;SDS011;1347;42.122;24.746;2023-07-02T11:19:05;19.60;;;13.53;;
2674;SDS011;1347;42.122;24.746;2023-07-02T11:21:33;18.90;;;13.33;;
2674;SDS011;1347;42.122;24.746;2023-07-02T11:24:03;16.40;;;14.67;;
2674;SDS011;1347;42.122;24.746;2023-07-02T11:26:34;20.10;;;12.63;;
2674;SDS011;1347;42.122;24.746;2023-07-02T11:29:03;13.00;;;11.73;;
2674;SDS011;1347;42.122;24.746;2023-07-02T11:31:37;15.73;;;11.40;;
2674;SDS011;1347;42.122;24.746;2023-07-02T11:34:10;17.37;;;12.20;;
2674;SDS011;1347;42.122;24.746;2023-07-02T11:36:38;16.33;;;11.40;;
2674;SDS011;1347;42.122;24.746;2023-07-02T11:39:05;18.67;;;12.67;;
2674;SDS011;1347;42.122;24.746;2023-07-02T11:41:36;18.20;;;11.60;;
2674;SDS011;1347;42.122;24.746;2023-07-02T11:44:05;17.20;;;11.73;;
2674;SDS011;1347;42.122;24.746;2023-07-02T11:46:32;12.97;;;11.67;;
2674;SDS011;1347;42.122;24.746;2023-07-02T11:48:59;11.63;;;10.50;;
2674;SDS011;1347;42.122;24.746;2023-07-02T11:51:26;18.17;;;11.87;;
2674;SDS011;1347;42.122;24.746;2023-07-02T11:53:53;16.17;;;11.20;;
2674;SDS011;1347;42.122;24.746;2023-07-02T11:56:20;14.97;;;11.90;;
2674;SDS011;1347;42.122;24.746;2023-07-02T11:58:47;20.40;;;13.40;;
2674;SDS011;1347;42.122;24.746;2023-07-02T12:01:15;17.80;;;13.60;;
2674;SDS011;1347;42.122;24.746;2023-07-02T12:03:43;17.00;;;13.60;;
2674;SDS011;1347;42.122;24.746;2023-07-02T12:06:10;14.13;;;12.73;;
2674;SDS011;1347;42.122;24.746;2023-07-02T12:08:37;14.17;;;12.20;;
2674;SDS011;1347;42.122;24.746;2023-07-02T12:11:04;14.07;;;11.30;;
2674;SDS011;1347;42.122;24.746;2023-07-02T12:13:31;12.73;;;11.47;;
2674;SDS011;1347;42.122;24.746;2023-07-02T12:15:58;16.00;;;11.10;;
2674;SDS011;1347;42.122;24.746;2023-07-02T12:18:27;13.93;;;12.03;;
2674;SDS011;1347;42.122;24.746;2023-07-02T12:20:53;17.40;;;11.80;;
2674;SDS011;1347;42.122;24.746;2023-07-02T12:23:20;12.97;;;11.47;;
2674;SDS011;1347;42.122;24.746;2023-07-02T12:25:49;13.07;;;10.83;;
2674;SDS011;1347;42.122;24.746;2023-07-02T12:28:16;13.57;;;12.30;;
2674;SDS011;1347;42.122;24.746;2023-07-02T12:30:43;11.53;;;10.33;;
2674;SDS011;1347;42.122;24.746;2023-07-02T12:33:10;11.73;;;10.53;;
2674;SDS011;1347;42.122;24.746;2023-07-02T12:35:38;12.47;;;11.13;;
2674;SDS011;1347;42.122;24.746;2023-07-02T12:38:05;10.83;;;9.77;;
2674;SDS011;1347;42.122;24.746;2023-07-02T12:40:33;11.57;;;10.47;;
2674;SDS011;1347;42.122;24.746;2023-07-02T12:43:00;12.40;;;11.03;;
2674;SDS011;1347;42.122;24.746;2023-07-02T12:45:27;11.90;;;10.70;;
2674;SDS011;1347;42.122;24.746;2023-07-02T12:47:54;15.77;;;11.33;;
2674;SDS011;1347;42.122;24.746;2023-07-02T12:50:21;12.43;;;11.13;;
2674;SDS011;1347;42.122;24.746;2023-07-02T12:52:49;12.60;;;11.20;;
2674;SDS011;1347;42.122;24.746;2023-07-02T12:55:16;12.90;;;11.60;;
2674;SDS011;1347;42.122;24.746;2023-07-02T12:57:43;13.00;;;11.70;;
2674;SDS011;1347;42.122;24.746;2023-07-02T13:00:11;12.83;;;11.60;;
2674;SDS011;1347;42.122;24.746;2023-07-02T13:02:38;12.50;;;11.30;;
2674;SDS011;1347;42.122;24.746;2023-07-02T13:05:06;13.73;;;12.43;;
2674;SDS011;1347;42.122;24.746;2023-07-02T13:07:33;11.57;;;10.40;;
2674;SDS011;1347;42.122;24.746;2023-07-02T13:10:01;11.57;;;10.37;;
2674;SDS011;1347;42.122;24.746;2023-07-02T13:12:28;11.80;;;10.70;;
2674;SDS011;1347;42.122;24.746;2023-07-02T13:14:58;17.17;;;15.47;;
2674;SDS011;1347;42.122;24.746;2023-07-02T13:17:25;13.10;;;11.43;;
2674;SDS011;1347;42.122;24.746;2023-07-02T13:19:56;13.33;;;12.03;;
2674;SDS011;1347;42.122;24.746;2023-07-02T13:22:23;13.20;;;12.00;;
2674;SDS011;1347;42.122;24.746;2023-07-02T13:24:50;12.20;;;10.93;;
2674;SDS011;1347;42.122;24.746;2023-07-02T13:27:19;14.77;;;12.23;;
2674;SDS011;1347;42.122;24.746;2023-07-02T13:29:46;17.00;;;12.93;;
2674;SDS011;1347;42.122;24.746;2023-07-02T13:32:13;16.17;;;13.70;;
2674;SDS011;1347;42.122;24.746;2023-07-02T13:34:40;25.70;;;23.03;;
2674;SDS011;1347;42.122;24.746;2023-07-02T13:37:08;37.70;;;33.60;;
2674;SDS011;1347;42.122;24.746;2023-07-02T13:39:35;43.97;;;39.27;;
2674;SDS011;1347;42.122;24.746;2023-07-02T13:42:02;36.50;;;32.87;;
2674;SDS011;1347;42.122;24.746;2023-07-02T13:44:31;25.67;;;22.90;;
2674;SDS011;1347;42.122;24.746;2023-07-02T13:46:59;17.27;;;15.57;;
2674;SDS011;1347;42.122;24.746;2023-07-02T13:49:29;19.03;;;15.27;;
2674;SDS011;1347;42.122;24.746;2023-07-02T13:51:56;13.63;;;12.30;;
2674;SDS011;1347;42.122;24.746;2023-07-02T13:54:24;12.57;;;11.20;;
2674;SDS011;1347;42.122;24.746;2023-07-02T13:56:51;13.57;;;12.30;;
2674;SDS011;1347;42.122;24.746;2023-07-02T13:59:23;13.50;;;12.20;;
2674;SDS011;1347;42.122;24.746;2023-07-02T14:01:50;13.43;;;12.03;;
2674;SDS011;1347;42.122;24.746;2023-07-02T14:04:17;13.90;;;12.50;;
2674;SDS011;1347;42.122;24.746;2023-07-02T14:06:44;13.60;;;11.20;;
2674;SDS011;1347;42.122;24.746;2023-07-02T14:09:12;12.60;;;11.30;;
2674;SDS011;1347;42.122;24.746;2023-07-02T14:11:41;10.83;;;9.80;;
2674;SDS011;1347;42.122;24.746;2023-07-02T14:14:08;11.70;;;10.50;;
2674;SDS011;1347;42.122;24.746;2023-07-02T14:16:36;11.10;;;9.70;;
2674;SDS011;1347;42.122;24.746;2023-07-02T14:19:04;12.27;;;10.17;;
2674;SDS011;1347;42.122;24.746;2023-07-02T14:21:31;11.10;;;9.97;;
2674;SDS011;1347;42.122;24.746;2023-07-02T14:23:58;11.50;;;10.40;;
2674;SDS011;1347;42.122;24.746;2023-07-02T14:26:25;12.30;;;10.40;;
2674;SDS011;1347;42.122;24.746;2023-07-02T14:28:52;11.67;;;10.47;;
2674;SDS011;1347;42.122;24.746;2023-07-02T14:31:19;14.00;;;10.43;;
2674;SDS011;1347;42.122;24.746;2023-07-02T14:33:50;13.93;;;10.60;;
2674;SDS011;1347;42.122;24.746;2023-07-02T14:36:17;11.07;;;9.93;;
2674;SDS011;1347;42.122;24.746;2023-07-02T14:38:44;14.70;;;10.53;;
2674;SDS011;1347;42.122;24.746;2023-07-02T14:41:11;15.70;;;11.03;;
2674;SDS011;1347;42.122;24.746;2023-07-02T14:43:38;11.43;;;10.20;;
2674;SDS011;1347;42.122;24.746;2023-07-02T14:46:05;11.00;;;9.20;;
2674;SDS011;1347;42.122;24.746;2023-07-02T14:48:32;11.20;;;10.03;;